Time;durP1;ratioP1;P1;durP2;ratioP2;P2;SDS_P1;SDS_P2;PMS_P1;PMS_P2;Temp;Humidity;BMP_temperature;BMP_pressure;BME280_temperature;BME280_humidity;BME280_pressure;Samples;Min_cycle;Max_cycle;Signal;HPM_P1;HPM_P2
2022/05/11 00:03:10;;;;;;;12.13;10.77;;;;;;;20.59;53.92;98833.53;7008067;28;20252;-82
2022/05/11 00:06:33;;;;;;;12.27;9.60;;;;;;;20.64;53.79;98836.31;7008073;28;20239;-82
2022/05/11 00:09:55;;;;;;;10.80;9.77;;;;;;;20.45;53.93;98815.97;7007708;28;20230;-82
2022/05/11 00:13:18;;;;;;;10.43;9.40;;;;;;;20.70;53.23;98836.03;7007845;28;20260;-82
2022/05/11 00:16:39;;;;;;;9.70;8.80;;;;;;;20.78;52.77;98838.28;7007076;28;20219;-82
2022/05/11 00:20:04;;;;;;;10.50;9.17;;;;;;;20.72;52.87;98841.25;7003624;28;20317;-81
2022/05/11 00:23:26;;;;;;;10.33;9.20;;;;;;;20.62;53.68;98841.22;7007422;28;20655;-82
2022/05/11 00:26:47;;;;;;;10.43;9.33;;;;;;;20.62;53.45;98827.50;7007164;28;20214;-82
2022/05/11 00:30:12;;;;;;;10.20;9.37;;;;;;;20.35;53.60;98821.38;7009154;28;20205;-81
2022/05/11 00:33:33;;;;;;;10.57;9.57;;;;;;;20.06;54.64;98822.84;7008383;28;20228;-82
2022/05/11 00:36:55;;;;;;;11.27;9.13;;;;;;;20.26;54.49;98821.06;7007513;28;20210;-82
2022/05/11 00:40:17;;;;;;;10.70;9.77;;;;;;;20.22;54.25;98814.47;7007526;28;20283;-81
2022/05/11 00:43:41;;;;;;;10.57;9.47;;;;;;;20.35;53.94;98822.19;7008098;28;20248;-82
2022/05/11 00:47:06;;;;;;;9.90;9.10;;;;;;;20.43;53.81;98816.22;7006681;28;20684;-82
2022/05/11 00:50:30;;;;;;;9.93;8.80;;;;;;;20.39;53.58;98815.09;7007274;28;20283;-82
2022/05/11 00:53:53;;;;;;;10.93;9.87;;;;;;;20.48;52.92;98813.50;7007068;28;20268;-82
2022/05/11 00:57:20;;;;;;;9.80;8.80;;;;;;;20.20;53.58;98807.63;7006625;28;20306;-82
2022/05/11 01:00:43;;;;;;;10.33;9.33;;;;;;;20.31;53.28;98809.31;7007678;28;20279;-81
2022/05/11 01:04:09;;;;;;;11.93;9.37;;;;;;;20.12;54.04;98810.88;7007777;28;20290;-82
2022/05/11 01:07:31;;;;;;;10.97;9.97;;;;;;;19.86;54.50;98818.06;7006802;28;20196;-81
2022/05/11 01:10:53;;;;;;;11.20;10.17;;;;;;;19.12;57.10;98819.13;7007484;28;20230;-82
2022/05/11 01:14:17;;;;;;;10.70;9.60;;;;;;;19.48;55.63;98806.59;7007478;28;20300;-81
2022/05/11 01:17:39;;;;;;;11.47;9.60;;;;;;;19.86;55.27;98814.53;7007070;28;20210;-82
2022/05/11 01:21:06;;;;;;;9.53;8.63;;;;;;;20.11;53.63;98820.97;7007150;28;20219;-82
2022/05/11 01:24:33;;;;;;;11.27;10.07;;;;;;;19.72;54.36;98795.00;7007826;28;20237;-81
2022/05/11 01:28:02;;;;;;;10.63;9.30;;;;;;;19.73;54.24;98812.22;7008812;28;20243;-81
2022/05/11 01:31:23;;;;;;;11.07;9.97;;;;;;;19.50;55.26;98818.06;7025361;28;20211;-82
2022/05/11 01:34:45;;;;;;;10.67;9.57;;;;;;;19.68;54.68;98817.66;7019486;28;20679;-81
2022/05/11 01:38:15;;;;;;;11.00;9.90;;;;;;;19.28;55.30;98799.03;7013928;28;20217;-82
2022/05/11 01:41:40;;;;;;;10.47;9.47;;;;;;;18.99;56.63;98803.13;7024791;28;20270;-82
2022/05/11 01:45:01;;;;;;;10.17;9.10;;;;;;;19.47;55.62;98815.88;7022378;28;20702;-82
2022/05/11 01:48:23;;;;;;;11.60;10.50;;;;;;;19.24;55.72;98802.56;7005923;28;20249;-82
2022/05/11 01:51:45;;;;;;;14.67;10.00;;;;;;;18.83;57.28;98801.34;7005421;28;20726;-81
2022/05/11 01:55:08;;;;;;;12.13;9.97;;;;;;;18.83;57.29;98809.53;7007122;28;20218;-81
2022/05/11 01:58:31;;;;;;;10.77;9.77;;;;;;;18.36;56.69;98720.25;7006704;28;20229;-81
2022/05/11 02:01:54;;;;;;;11.47;10.07;;;;;;;18.29;59.13;98807.78;7005900;28;20225;-82
2022/05/11 02:08:55;;;;;;;11.37;10.33;;;;;;;18.66;57.88;98803.34;7008891;28;20182;-81
2022/05/11 02:12:16;;;;;;;10.97;9.93;;;;;;;18.95;56.53;98809.38;7005893;28;20233;-81
2022/05/11 02:15:39;;;;;;;11.00;9.90;;;;;;;18.99;56.47;98803.13;7005371;28;20229;-81
2022/05/11 02:19:01;;;;;;;10.37;9.47;;;;;;;19.32;55.47;98804.81;7005165;28;20228;-81
2022/05/11 02:22:23;;;;;;;10.23;9.20;;;;;;;19.16;55.75;98812.03;7004427;28;20249;-82
2022/05/11 02:25:45;;;;;;;10.47;9.47;;;;;;;18.90;56.63;98812.03;7004841;28;20265;-81
2022/05/11 02:29:06;;;;;;;10.70;9.70;;;;;;;18.90;56.48;98809.31;7005052;28;20238;-81
2022/05/11 02:32:29;;;;;;;10.10;9.10;;;;;;;19.18;55.73;98814.50;7005767;28;20250;-82
2022/05/11 02:35:51;;;;;;;10.97;9.67;;;;;;;18.84;55.93;98799.41;7004315;28;20699;-82
2022/05/11 02:39:13;;;;;;;10.10;9.10;;;;;;;18.79;55.49;98815.75;7004523;28;20317;-82
2022/05/11 02:42:35;;;;;;;10.90;9.90;;;;;;;18.80;56.48;98806.50;7007163;28;20326;-82
2022/05/11 02:45:56;;;;;;;10.40;9.30;;;;;;;18.89;56.27;98804.94;7009055;28;20209;-82
2022/05/11 02:49:19;;;;;;;11.10;10.10;;;;;;;18.77;56.11;98794.19;7010252;28;20311;-80
2022/05/11 02:52:41;;;;;;;11.97;10.80;;;;;;;17.16;60.50;98746.66;7009846;28;20221;-81
2022/05/11 02:56:03;;;;;;;11.60;9.53;;;;;;;18.22;58.42;98803.59;7010414;28;20210;-82
2022/05/11 02:59:25;;;;;;;10.37;9.47;;;;;;;18.54;57.53;98799.09;7010369;28;20205;-82
2022/05/11 03:02:47;;;;;;;10.73;9.60;;;;;;;18.39;56.68;98813.41;7010864;28;20410;-81
2022/05/11 03:06:10;;;;;;;10.70;9.57;;;;;;;18.56;56.58;98786.84;7011345;28;20711;-81
2022/05/11 03:09:32;;;;;;;10.93;9.83;;;;;;;18.40;57.78;98803.31;7008955;28;20221;-82
2022/05/11 03:12:54;;;;;;;14.40;9.83;;;;;;;18.56;57.18;98802.38;7008999;28;20222;-82
2022/05/11 03:16:16;;;;;;;10.47;9.43;;;;;;;18.11;57.46;98748.06;7007491;28;20209;-82
2022/05/11 03:19:38;;;;;;;10.97;9.87;;;;;;;17.77;58.99;98792.06;7008371;28;20269;-82
2022/05/11 03:23:01;;;;;;;11.07;10.00;;;;;;;18.46;57.59;98783.19;7013040;28;20234;-81
2022/05/11 03:26:23;;;;;;;11.00;10.00;;;;;;;18.22;57.91;98785.31;7009802;28;20230;-81
2022/05/11 03:29:44;;;;;;;10.20;9.30;;;;;;;18.49;57.46;98794.41;7014218;28;20198;-81
2022/05/11 03:36:47;;;;;;;10.73;9.73;;;;;;;17.71;59.54;98804.81;7016249;28;20554;-82
2022/05/11 03:40:12;;;;;;;11.20;10.10;;;;;;;17.53;59.79;98788.75;7023460;28;20205;-82
2022/05/11 03:43:34;;;;;;;11.97;10.87;;;;;;;17.93;57.70;98726.53;7024308;28;20236;-82
2022/05/11 03:46:58;;;;;;;10.93;9.90;;;;;;;17.60;59.43;98785.81;7024465;28;20212;-82
2022/05/11 03:50:25;;;;;;;9.77;8.83;;;;;;;18.26;57.75;98793.81;7017168;28;20207;-82
2022/05/11 03:53:46;;;;;;;11.03;10.03;;;;;;;17.75;59.89;98794.22;7010140;28;20245;-82
2022/05/11 03:57:09;;;;;;;11.17;10.03;;;;;;;17.96;58.95;98766.13;7012985;28;20255;-82
2022/05/11 04:00:32;;;;;;;10.83;9.80;;;;;;;17.76;60.31;98793.97;7014285;28;20202;-83
2022/05/11 04:03:53;;;;;;;10.43;9.43;;;;;;;17.91;58.52;98760.59;7013012;28;20374;-83
2022/05/11 04:07:15;;;;;;;9.80;8.83;;;;;;;17.99;59.00;98784.75;7014353;28;20224;-84
2022/05/11 04:10:37;;;;;;;10.60;9.50;;;;;;;17.87;58.76;98792.22;7033240;28;20227;-82
2022/05/11 04:14:00;;;;;;;11.57;10.30;;;;;;;17.61;59.76;98790.19;7015672;28;20241;-83
2022/05/11 04:17:21;;;;;;;10.90;9.87;;;;;;;18.49;57.34;98788.94;7013557;28;20212;-83
2022/05/11 04:20:43;;;;;;;11.13;9.73;;;;;;;17.72;58.65;98795.56;7010981;28;20253;-83
2022/05/11 04:24:05;;;;;;;11.07;9.97;;;;;;;16.90;60.29;98725.56;7011545;28;20237;-85
2022/05/11 04:27:29;;;;;;;10.13;9.10;;;;;;;18.25;57.31;98789.44;7008829;28;20209;-83
2022/05/11 04:31:00;;;;;;;9.97;8.90;;;;;;;17.89;58.92;98763.63;7008901;28;20237;-85
2022/05/11 04:34:22;;;;;;;10.10;9.13;;;;;;;18.40;57.48;98804.13;7028768;28;20217;-83
2022/05/11 04:37:44;;;;;;;9.67;8.77;;;;;;;18.30;56.50;98746.66;7026751;28;20209;-85
2022/05/11 04:41:07;;;;;;;10.73;9.73;;;;;;;18.14;58.24;98795.84;7016145;28;20213;-82
2022/05/11 04:44:29;;;;;;;10.07;9.10;;;;;;;17.69;59.03;98787.06;7033568;28;20233;-83
2022/05/11 04:47:52;;;;;;;10.83;9.80;;;;;;;17.98;58.77;98808.47;7036217;28;20228;-84
2022/05/11 04:51:14;;;;;;;10.00;9.10;;;;;;;18.22;58.39;98798.94;7036178;28;20208;-82
2022/05/11 04:54:37;;;;;;;9.63;8.73;;;;;;;18.20;59.11;98803.00;7035410;28;20202;-83
2022/05/11 04:57:59;;;;;;;10.37;9.37;;;;;;;18.06;58.76;98778.03;7036787;28;20209;-83
2022/05/11 05:01:20;;;;;;;10.37;9.27;;;;;;;18.47;57.76;98793.84;7036178;28;20209;-82
2022/05/11 05:04:43;;;;;;;10.23;9.23;;;;;;;18.34;57.22;98733.34;7040015;28;20262;-83
2022/05/11 05:08:05;;;;;;;9.83;8.83;;;;;;;18.95;56.94;98795.72;7029711;28;20242;-82
2022/05/11 05:11:27;;;;;;;9.80;8.83;;;;;;;18.96;57.28;98780.97;7021401;28;20202;-83
2022/05/11 05:14:49;;;;;;;11.43;9.23;;;;;;;19.21;56.89;98797.63;7038675;28;20197;-83
2022/05/11 05:18:11;;;;;;;10.33;9.43;;;;;;;19.69;54.86;98781.03;7041553;28;20238;-83
2022/05/11 05:21:34;;;;;;;11.90;8.97;;;;;;;19.10;56.15;98798.59;7026512;28;20241;-83
2022/05/11 05:24:55;;;;;;;12.73;9.07;;;;;;;19.50;55.71;98802.50;7034321;28;20210;-83
2022/05/11 05:31:56;;;;;;;11.77;9.00;;;;;;;20.59;52.88;98792.44;7034548;28;20213;-82
2022/05/11 05:35:19;;;;;;;10.83;8.27;;;;;;;20.93;51.73;98790.91;7035023;28;20552;-83
2022/05/11 05:38:43;;;;;;;11.23;9.00;;;;;;;20.44;53.14;98806.06;7035350;28;20211;-83
2022/05/11 05:42:05;;;;;;;10.77;8.57;;;;;;;21.15;51.80;98797.78;7016708;28;20225;-83
2022/05/11 05:45:27;;;;;;;9.77;8.40;;;;;;;21.82;49.79;98768.13;7008169;28;20236;-83
2022/05/11 05:48:49;;;;;;;10.97;9.10;;;;;;;21.17;51.64;98796.44;7007908;28;20222;-82
2022/05/11 05:52:16;;;;;;;9.37;8.47;;;;;;;22.22;51.44;98800.97;7008133;28;20234;-82
2022/05/11 05:55:39;;;;;;;10.37;8.87;;;;;;;22.32;49.09;98771.56;7008383;28;20557;-83
2022/05/11 05:59:05;;;;;;;7.33;5.23;;;;;;;22.07;47.28;98796.34;7012968;28;20214;-83
2022/05/11 06:02:27;;;;;;;12.63;5.70;;;;;;;23.69;45.25;98795.13;7027195;28;20640;-82
2022/05/11 06:05:49;;;;;;;8.27;6.17;;;;;;;24.46;45.02;98781.09;7041653;28;20235;-83
2022/05/11 06:09:10;;;;;;;7.70;5.60;;;;;;;23.76;43.61;98773.59;7047143;28;20206;-82
2022/05/11 06:12:33;;;;;;;4.53;3.93;;;;;;;24.41;40.48;98772.88;7038167;28;20304;-83
2022/05/11 06:15:56;;;;;;;4.43;3.93;;;;;;;24.11;41.23;98738.25;7045763;28;20395;-81
2022/05/11 06:19:18;;;;;;;5.03;4.50;;;;;;;25.79;38.84;98773.00;7054789;28;20216;-80
2022/05/11 06:22:41;;;;;;;5.00;4.47;;;;;;;25.04;39.90;98791.63;7019133;28;20230;-81
2022/05/11 06:26:03;;;;;;;4.50;4.20;;;;;;;24.98;39.85;98787.28;7031032;28;20231;-82
2022/05/11 06:29:26;;;;;;;4.87;4.47;;;;;;;25.02;39.94;98782.00;7039437;28;20721;-81
2022/05/11 06:32:48;;;;;;;4.47;4.10;;;;;;;25.11;39.33;98758.09;7039029;28;20242;-82
2022/05/11 06:36:09;;;;;;;6.00;4.40;;;;;;;26.36;38.49;98789.06;7038503;28;20201;-82
2022/05/11 06:39:31;;;;;;;4.40;4.00;;;;;;;25.99;38.72;98761.59;7040185;28;20205;-81
2022/05/11 06:42:53;;;;;;;4.67;4.27;;;;;;;25.72;38.86;98747.72;7011608;28;20591;-82
2022/05/11 06:46:16;;;;;;;4.20;3.90;;;;;;;26.52;37.65;98774.59;7009934;28;20255;-81
2022/05/11 06:49:37;;;;;;;4.13;3.83;;;;;;;26.93;34.99;98777.31;7010429;28;20288;-81
2022/05/11 06:53:08;;;;;;;4.07;3.63;;;;;;;27.72;35.81;98757.13;7014109;28;20645;-81
2022/05/11 07:00:09;;;;;;;5.33;3.70;;;;;;;28.33;33.24;98771.81;7038202;28;20204;-81
2022/05/11 07:03:32;;;;;;;6.67;3.70;;;;;;;29.30;32.15;98766.63;7038167;28;20230;-82
2022/05/11 07:06:54;;;;;;;3.70;3.40;;;;;;;29.47;31.18;98771.34;7037602;28;20218;-81
2022/05/11 07:10:16;;;;;;;5.07;3.90;;;;;;;28.72;32.23;98777.31;7038832;28;20546;-83
2022/05/11 07:13:38;;;;;;;3.73;3.40;;;;;;;28.83;31.74;98767.53;7037859;28;20229;-82
2022/05/11 07:16:59;;;;;;;4.07;3.77;;;;;;;28.64;32.72;98747.59;7036776;28;20239;-82
2022/05/11 07:20:26;;;;;;;5.30;3.43;;;;;;;29.40;31.19;98768.25;7037067;28;20206;-83
2022/05/11 07:23:47;;;;;;;4.60;3.60;;;;;;;28.91;32.25;98769.50;7038185;28;20243;-82
2022/05/11 07:27:09;;;;;;;4.73;3.50;;;;;;;29.63;31.31;98770.56;7036900;28;20207;-82
2022/05/11 07:30:32;;;;;;;4.70;3.50;;;;;;;29.39;30.82;98770.22;7021814;28;20211;-82
2022/05/11 07:33:54;;;;;;;4.53;3.60;;;;;;;30.21;30.76;98761.56;7010056;28;20993;-81
2022/05/11 07:37:17;;;;;;;6.10;3.60;;;;;;;29.71;30.85;98750.25;7010606;28;20218;-82
2022/05/11 07:40:40;;;;;;;4.87;4.00;;;;;;;29.40;31.24;98765.47;7018481;28;20198;-81
2022/05/11 07:44:01;;;;;;;4.20;3.80;;;;;;;30.54;29.69;98760.59;7037846;28;20294;-82
2022/05/11 07:47:23;;;;;;;5.47;3.47;;;;;;;29.98;30.70;98766.53;7037886;28;20207;-82
2022/05/11 07:50:45;;;;;;;7.70;3.70;;;;;;;30.20;31.22;98748.81;7037368;28;20252;-81
2022/05/11 07:54:08;;;;;;;6.13;3.90;;;;;;;29.40;31.50;98755.19;7038386;28;20245;-82
2022/05/11 08:01:09;;;;;;;4.37;3.57;;;;;;;30.74;29.28;98756.25;7038006;28;20203;-82
2022/05/11 08:04:30;;;;;;;3.70;3.40;;;;;;;30.12;30.73;98741.31;7038341;28;20230;-82
2022/05/11 08:07:53;;;;;;;4.27;3.73;;;;;;;30.00;30.83;98744.78;7037460;28;20207;-82
2022/05/11 08:11:16;;;;;;;6.07;3.20;;;;;;;30.18;30.32;98746.38;7037626;28;20206;-82
2022/05/11 08:14:38;;;;;;;4.10;3.70;;;;;;;29.86;30.91;98702.47;7037505;28;20207;-82
2022/05/11 08:18:01;;;;;;;5.07;3.63;;;;;;;30.42;30.73;98743.78;7037869;28;20320;-82
2022/05/11 08:21:24;;;;;;;3.63;3.33;;;;;;;29.80;30.63;98742.72;7030664;28;20213;-82
2022/05/11 08:24:46;;;;;;;4.80;3.40;;;;;;;29.87;31.33;98743.03;7037078;28;20268;-82
2022/05/11 08:28:12;;;;;;;3.50;3.20;;;;;;;30.41;29.24;98717.13;7036967;28;20218;-80
2022/05/11 08:35:13;;;;;;;4.10;3.10;;;;;;;29.71;30.39;98739.13;7037343;28;20680;-82
2022/05/11 08:38:38;;;;;;;3.60;3.30;;;;;;;30.16;30.45;98733.94;7037144;28;20207;-82
2022/05/11 08:42:01;;;;;;;4.73;3.40;;;;;;;29.74;30.41;98721.81;7036778;28;20694;-81
2022/05/11 08:48:58;;;;;;;3.50;3.20;;;;;;;31.27;28.66;98728.50;7024815;28;20224;-81
2022/05/11 08:52:29;;;;;;;4.97;3.13;;;;;;;30.21;29.52;98670.59;7033265;28;20579;-81
2022/05/11 08:55:52;;;;;;;3.27;3.07;;;;;;;31.43;27.21;98662.63;7015526;28;20206;-81
2022/05/11 08:59:19;;;;;;;3.80;3.30;;;;;;;31.68;27.19;98725.63;7018854;28;20203;-81
2022/05/11 09:02:47;;;;;;;4.23;3.00;;;;;;;32.83;25.95;98695.31;7023359;28;20701;-82
2022/05/11 09:06:16;;;;;;;4.97;2.93;;;;;;;33.26;25.58;98701.75;7033280;28;20212;-81
2022/05/11 09:09:38;;;;;;;4.03;2.63;;;;;;;32.71;25.12;98640.25;7030427;28;20200;-81
2022/05/11 09:13:02;;;;;;;3.70;2.80;;;;;;;32.82;24.94;98704.81;7030058;28;20197;-81
2022/05/11 09:16:26;;;;;;;5.47;2.73;;;;;;;33.13;24.91;98703.00;7029405;28;20209;-79
2022/05/11 09:19:48;;;;;;;4.33;2.80;;;;;;;32.88;24.63;98689.44;7027223;28;20201;-79
2022/05/11 09:23:11;;;;;;;3.57;2.70;;;;;;;32.22;25.44;98696.44;7035171;28;20223;-80
2022/05/11 09:26:36;;;;;;;3.90;2.87;;;;;;;31.00;26.76;98645.47;7035539;28;20278;-82
2022/05/11 09:30:01;;;;;;;3.40;3.10;;;;;;;32.71;25.96;98689.69;7035920;28;20677;-82
2022/05/11 09:33:24;;;;;;;3.43;2.90;;;;;;;33.15;24.99;98692.28;7035709;28;20281;-81
2022/05/11 09:36:55;;;;;;;4.37;3.00;;;;;;;32.80;25.32;98670.84;7033866;28;20638;-81
2022/05/11 09:40:21;;;;;;;3.40;3.10;;;;;;;33.07;25.29;98700.81;7035510;28;20205;-81
2022/05/11 09:43:46;;;;;;;4.37;2.87;;;;;;;32.61;24.40;98690.97;7028661;28;20208;-81
2022/05/11 09:47:25;;;;;;;3.17;2.83;;;;;;;33.05;24.63;98694.75;7031760;28;20229;-81
2022/05/11 09:50:47;;;;;;;6.00;3.30;;;;;;;32.49;25.15;98632.38;7035272;28;20696;-81
2022/05/11 09:54:24;;;;;;;5.20;3.10;;;;;;;32.72;24.20;98688.53;7035195;28;20205;-81
2022/05/11 09:57:56;;;;;;;4.17;3.20;;;;;;;32.16;25.72;98661.56;7044830;28;20214;-81
2022/05/11 10:01:24;;;;;;;6.07;3.20;;;;;;;32.76;25.92;98675.50;7048183;28;20329;-90
2022/05/11 10:04:53;;;;;;;4.03;3.30;;;;;;;33.39;25.22;98681.03;7032546;28;20247;-81
2022/05/11 10:08:21;;;;;;;4.87;3.60;;;;;;;31.94;25.90;98653.66;7007773;28;20217;-79
2022/05/11 10:11:46;;;;;;;5.13;3.87;;;;;;;32.64;26.03;98653.16;7015765;28;20646;-80
2022/05/11 10:22:52;;;;;;;5.60;3.60;;;;;;;32.77;24.93;98655.59;7032052;28;20205;-80
2022/05/11 10:26:21;;;;;;;3.57;3.27;;;;;;;32.39;25.08;98576.22;7033556;28;20220;-81
2022/05/11 10:30:03;;;;;;;4.57;3.50;;;;;;;32.59;25.53;98597.56;7034631;28;20197;-87
2022/05/11 10:33:51;;;;;;;3.90;3.60;;;;;;;32.28;25.86;98644.84;7034472;28;20690;-82
2022/05/11 10:37:19;;;;;;;3.70;3.40;;;;;;;33.24;24.19;98581.13;7032257;28;20208;-81
2022/05/11 10:40:50;;;;;;;3.70;3.40;;;;;;;33.90;23.83;98612.88;7035366;28;20720;-84
2022/05/11 10:44:28;;;;;;;4.90;3.37;;;;;;;34.16;23.36;98562.75;7034128;28;20201;-84
2022/05/11 10:48:11;;;;;;;4.83;3.40;;;;;;;33.48;23.97;98622.94;7034424;28;20601;-84
2022/05/11 10:51:38;;;;;;;3.70;3.40;;;;;;;33.45;23.46;98626.47;7020913;28;20201;-86
2022/05/11 10:55:13;;;;;;;5.90;3.30;;;;;;;32.76;24.31;98628.84;7035097;28;20185;-85
2022/05/11 10:59:03;;;;;;;4.87;3.30;;;;;;;33.29;23.27;98611.66;7033428;28;20213;-86
2022/05/11 11:02:49;;;;;;;3.77;3.10;;;;;;;33.65;22.33;98602.19;7030803;28;20202;-79
2022/05/11 11:10:18;;;;;;;3.83;2.73;;;;;;;33.62;22.81;98589.78;7011193;28;20209;-81
2022/05/11 11:13:42;;;;;;;4.63;2.87;;;;;;;33.39;23.54;98537.63;7010316;28;20229;-81
2022/05/11 11:17:07;;;;;;;6.57;3.37;;;;;;;33.93;22.12;98586.16;7009876;28;20233;-82
2022/05/11 11:20:30;;;;;;;2.90;2.60;;;;;;;33.44;21.90;98540.94;7010976;28;20328;-81
2022/05/11 11:24:22;;;;;;;4.70;2.80;;;;;;;33.79;22.13;98553.06;7011524;28;20204;-81
2022/05/11 11:28:08;;;;;;;3.47;3.03;;;;;;;34.07;21.65;98530.56;7011142;28;20205;-81
2022/05/11 11:31:30;;;;;;;8.10;2.97;;;;;;;34.41;20.77;98505.34;7010558;28;20205;-81
2022/05/11 11:34:56;;;;;;;3.03;2.73;;;;;;;33.65;21.45;98527.50;7009428;28;20205;-82
2022/05/11 11:38:25;;;;;;;2.93;2.63;;;;;;;34.24;19.42;98502.94;7010390;28;20202;-82
2022/05/11 11:42:06;;;;;;;2.93;2.73;;;;;;;33.92;19.87;98479.06;7011569;28;20209;-81
2022/05/11 11:46:03;;;;;;;3.50;2.80;;;;;;;34.45;20.59;98553.03;7008050;28;20316;-81
2022/05/11 11:53:22;;;;;;;2.40;2.30;;;;;;;33.25;21.24;98542.81;7057101;27;20615;-80
2022/05/11 11:56:50;;;;;;;2.90;2.70;;;;;;;34.02;20.03;98528.81;7056720;28;20713;-80
2022/05/11 12:00:34;;;;;;;3.37;2.53;;;;;;;34.81;18.18;98522.63;7056302;28;20328;-80
2022/05/11 12:03:58;;;;;;;3.50;2.70;;;;;;;34.61;18.68;98534.97;7057141;28;20247;-80
2022/05/11 12:15:02;;;;;;;3.63;2.57;;;;;;;34.39;18.61;98513.31;7056028;28;20224;-80
2022/05/11 12:18:26;;;;;;;3.47;2.83;;;;;;;34.59;17.91;98517.72;7056792;28;20216;-80
2022/05/11 12:21:55;;;;;;;5.17;2.50;;;;;;;34.93;18.63;98486.03;7055872;28;20204;-80
2022/05/11 12:25:38;;;;;;;2.83;2.63;;;;;;;34.12;19.62;98505.06;7055862;28;20243;-80
2022/05/11 12:32:41;;;;;;;5.93;3.07;;;;;;;35.37;17.89;98483.63;7054806;28;20221;-81
2022/05/11 12:36:04;;;;;;;2.83;2.63;;;;;;;35.09;18.52;98494.31;7054748;28;20229;-80
2022/05/11 12:39:30;;;;;;;7.33;2.53;;;;;;;34.42;17.98;98464.16;7055697;28;20209;-80
2022/05/11 12:42:53;;;;;;;3.23;2.40;;;;;;;33.65;18.05;98496.75;7056263;28;20197;-80
2022/05/11 12:46:18;;;;;;;3.97;2.90;;;;;;;34.52;17.68;98497.97;7053513;28;20232;-80
2022/05/11 12:49:40;;;;;;;6.07;2.80;;;;;;;34.44;18.23;98471.00;7047983;28;20299;-80
2022/05/11 12:53:07;;;;;;;4.73;2.80;;;;;;;34.47;18.51;98478.69;7055503;28;20225;-80
2022/05/11 12:56:31;;;;;;;3.93;2.63;;;;;;;34.17;18.34;98469.22;7054166;28;20246;-80
2022/05/11 12:59:55;;;;;;;2.60;2.30;;;;;;;34.36;18.34;98486.03;7055103;28;20197;-80
2022/05/11 13:03:23;;;;;;;2.90;2.57;;;;;;;35.03;18.33;98450.97;7044043;28;20611;-81
2022/05/11 13:06:46;;;;;;;3.33;2.63;;;;;;;35.26;18.36;98454.59;7035744;28;20628;-81
2022/05/11 13:10:11;;;;;;;3.30;2.13;;;;;;;34.56;17.72;98420.47;7036925;28;20205;-81
2022/05/11 13:13:34;;;;;;;2.50;2.30;;;;;;;35.04;17.37;98441.38;7036191;28;20394;-81
2022/05/11 13:16:59;;;;;;;7.67;2.57;;;;;;;35.01;17.30;98448.53;7036378;28;20220;-81
2022/05/11 13:20:24;;;;;;;2.30;2.10;;;;;;;34.30;18.92;98448.31;7036633;28;20209;-81
2022/05/11 13:23:49;;;;;;;4.13;2.33;;;;;;;35.07;18.34;98447.03;7036731;28;20205;-81
2022/05/11 13:27:43;;;;;;;3.87;2.50;;;;;;;34.84;18.35;98428.59;7035615;28;20260;-81
2022/05/11 13:31:27;;;;;;;6.60;2.43;;;;;;;35.21;16.84;98435.25;6955522;28;20709;-81
2022/05/11 13:34:49;;;;;;;6.03;2.60;;;;;;;35.10;17.84;98442.69;7008167;28;20229;-81
2022/05/11 13:38:19;;;;;;;4.03;2.60;;;;;;;34.93;18.31;98415.16;7009084;28;20391;-81
2022/05/11 13:41:43;;;;;;;3.67;2.37;;;;;;;34.35;18.19;98422.00;7008448;28;20205;-81
2022/05/11 13:45:08;;;;;;;3.13;2.13;;;;;;;34.74;17.74;98413.19;7006302;28;20253;-81
2022/05/11 13:48:31;;;;;;;3.63;2.60;;;;;;;35.00;17.59;98412.47;7008807;28;20637;-81
2022/05/11 13:51:53;;;;;;;3.77;2.50;;;;;;;35.50;18.32;98410.13;7008434;28;20232;-80
2022/05/11 13:55:23;;;;;;;2.90;2.37;;;;;;;35.19;17.46;98406.81;7008914;28;20244;-80
2022/05/11 13:58:46;;;;;;;4.40;2.37;;;;;;;33.68;18.00;98335.78;7009154;28;20251;-80
2022/05/11 14:02:09;;;;;;;4.90;2.77;;;;;;;34.00;16.94;98373.66;7008532;28;20240;-80
2022/05/11 14:05:30;;;;;;;3.73;2.20;;;;;;;34.13;16.61;98380.75;7014988;28;20267;-81
2022/05/11 14:08:52;;;;;;;2.30;2.10;;;;;;;34.19;17.84;98410.84;7025969;28;20221;-82
2022/05/11 14:12:15;;;;;;;4.87;2.47;;;;;;;34.03;17.37;98410.13;7015308;28;20226;-81
2022/05/11 14:15:37;;;;;;;4.37;2.47;;;;;;;34.09;17.67;98397.47;7019253;28;20234;-81
2022/05/11 14:18:59;;;;;;;4.63;2.47;;;;;;;33.96;17.67;98389.59;7027891;28;20214;-81
2022/05/11 14:22:20;;;;;;;3.43;2.33;;;;;;;33.89;16.65;98376.25;7025483;28;20407;-80
2022/05/11 14:25:42;;;;;;;4.67;2.10;;;;;;;34.23;17.31;98388.53;7020822;28;20237;-81
2022/05/11 14:29:05;;;;;;;4.10;2.30;;;;;;;34.16;17.30;98392.03;7017922;28;20288;-81
2022/05/11 14:32:29;;;;;;;4.03;2.40;;;;;;;34.54;16.65;98380.78;7011541;28;20718;-80
2022/05/11 14:35:51;;;;;;;2.90;2.20;;;;;;;34.51;16.08;98363.94;7033270;28;20221;-81
2022/05/11 14:39:14;;;;;;;4.30;2.17;;;;;;;34.21;15.98;98379.72;7031014;28;20219;-81
2022/05/11 14:42:35;;;;;;;5.20;2.20;;;;;;;33.70;15.89;98378.19;7021771;28;20206;-80
2022/05/11 14:46:03;;;;;;;5.00;2.50;;;;;;;34.31;16.29;98376.34;7031925;28;20221;-81
2022/05/11 14:49:26;;;;;;;3.20;1.97;;;;;;;34.04;15.48;98364.19;7031427;28;20618;-81
2022/05/11 14:52:48;;;;;;;2.50;2.30;;;;;;;34.18;16.30;98374.84;7025750;28;20371;-81
2022/05/11 14:56:10;;;;;;;4.20;2.37;;;;;;;34.29;16.49;98373.91;7015184;28;20222;-80
2022/05/11 15:03:12;;;;;;;3.50;1.97;;;;;;;33.27;17.06;98376.41;7010305;28;20729;-81
2022/05/11 15:06:38;;;;;;;4.93;2.20;;;;;;;33.13;17.19;98378.03;7037256;28;20240;-81
2022/05/11 15:10:00;;;;;;;3.30;2.40;;;;;;;34.02;16.87;98369.31;7037015;28;20186;-81
2022/05/11 15:13:35;;;;;;;2.67;2.17;;;;;;;33.33;16.77;98343.41;7037351;28;20236;-80
2022/05/11 15:16:58;;;;;;;6.43;4.80;;;;;;;33.86;17.26;98339.81;7032722;28;20213;-80
2022/05/11 15:20:24;;;;;;;3.03;2.23;;;;;;;34.13;16.04;98355.56;7024151;28;20197;-79
2022/05/11 15:23:46;;;;;;;3.20;2.10;;;;;;;33.49;17.46;98358.94;7004880;28;20289;-82
2022/05/11 15:27:08;;;;;;;4.87;2.50;;;;;;;33.47;18.26;98354.88;7003626;28;20229;-79
2022/05/11 15:30:31;;;;;;;2.70;2.37;;;;;;;33.79;18.46;98367.63;7018275;28;20208;-81
2022/05/11 15:33:52;;;;;;;3.40;2.67;;;;;;;33.59;18.17;98363.97;7061134;28;20228;-81
2022/05/11 15:37:15;;;;;;;5.37;2.70;;;;;;;33.29;18.71;98332.13;7060478;28;20301;-79
2022/05/11 15:40:38;;;;;;;4.50;2.37;;;;;;;33.96;18.87;98358.81;7069266;28;20208;-80
2022/05/11 15:44:00;;;;;;;4.60;2.70;;;;;;;33.11;19.29;98305.75;7081944;28;20567;-79
2022/05/11 15:47:23;;;;;;;4.07;2.37;;;;;;;33.93;19.02;98363.16;7059331;28;20225;-80
2022/05/11 15:50:44;;;;;;;2.33;2.17;;;;;;;33.68;18.89;98339.41;7038281;28;20235;-80
2022/05/11 15:54:12;;;;;;;3.53;2.40;;;;;;;32.74;20.30;98307.22;7004487;28;20283;-79
2022/05/11 15:57:34;;;;;;;3.50;2.60;;;;;;;33.04;20.03;98355.88;7004533;28;20245;-78
2022/05/11 16:00:56;;;;;;;2.70;2.50;;;;;;;33.05;20.10;98339.91;7004759;28;20209;-79
2022/05/11 16:04:18;;;;;;;4.83;2.73;;;;;;;33.40;19.95;98340.75;7004843;28;20287;-80
2022/05/11 16:07:39;;;;;;;6.87;2.70;;;;;;;33.69;19.49;98351.41;7006090;28;20205;-79
2022/05/11 16:11:02;;;;;;;4.10;2.37;;;;;;;33.62;19.39;98323.28;7006000;28;20307;-81
2022/05/11 16:14:24;;;;;;;3.40;2.33;;;;;;;33.42;19.08;98332.84;7005168;28;20206;-80
2022/05/11 16:21:25;;;;;;;4.50;2.50;;;;;;;33.11;19.51;98341.25;7005226;28;20184;-81
2022/05/11 16:24:47;;;;;;;3.73;2.57;;;;;;;33.06;19.13;98349.91;7027062;28;20558;-80
2022/05/11 16:28:10;;;;;;;6.13;2.50;;;;;;;32.62;19.83;98346.41;7025721;28;20204;-80
2022/05/11 16:31:32;;;;;;;4.00;2.30;;;;;;;32.73;19.70;98324.31;7025552;28;20225;-81
2022/05/11 16:34:53;;;;;;;3.70;2.30;;;;;;;32.31;19.75;98354.72;7006888;28;20315;-79
2022/05/11 16:38:15;;;;;;;3.37;2.60;;;;;;;32.62;19.59;98342.78;7022796;28;20239;-79
2022/05/11 16:41:37;;;;;;;4.30;2.30;;;;;;;32.25;20.40;98333.81;7034301;28;20231;-78
2022/05/11 16:45:01;;;;;;;5.97;2.37;;;;;;;32.10;19.70;98330.97;7018573;28;20234;-79
2022/05/11 16:48:24;;;;;;;3.80;2.27;;;;;;;32.75;19.66;98339.53;7018282;28;20337;-79
2022/05/11 16:51:45;;;;;;;2.33;2.13;;;;;;;33.05;20.07;98339.91;7027353;28;20315;-78
2022/05/11 16:55:08;;;;;;;8.27;2.60;;;;;;;32.56;20.67;98342.25;7036085;28;20314;-79
2022/05/11 16:58:30;;;;;;;3.93;2.40;;;;;;;32.92;19.99;98330.84;7037341;28;20627;-79